Terminal Aerodrome Forecast
Issued by NWS

Home | Current Version | Previous Version | Text Only | Print | Product List | Glossary On
Versions: 1 2 3 4 5 6 7 8 9 10 11 12 13 14 15 16 17 18
000
FTUS43 KSGF 201700
TAFJLN
TAF
KJLN 201727Z 2018/2118 30011KT P6SM OVC005
     FM202100 36010KT P6SM OVC012
     FM210100 35006KT 6SM BR SCT007 OVC015
     FM210900 33004KT 4SM BR BKN004
     FM211600 01008KT P6SM SCT004 BKN020=

USA.gov is the U.S. government's official web portal to all federal, state and local government web resources and services.